createdAt,value
2023-05-10T00:01:07.109Z,100100.59
2023-05-10T00:03:34.088Z,100093.91
2023-05-10T00:06:01.062Z,100097.97
2023-05-10T00:08:27.919Z,100101.34
2023-05-10T00:10:54.834Z,100107.22
2023-05-10T00:13:21.937Z,100088.53
2023-05-10T00:15:48.841Z,100119.47
2023-05-10T00:18:15.766Z,100080.34
2023-05-10T00:20:42.762Z,100102.66
2023-05-10T00:23:09.665Z,100118.63
2023-05-10T00:25:36.558Z,100083.91
2023-05-10T00:28:03.430Z,100093.72
2023-05-10T00:30:30.770Z,100089.72
2023-05-10T00:32:57.668Z,100099.28
2023-05-10T00:35:24.717Z,100092.19
2023-05-10T00:37:51.669Z,100091.50
2023-05-10T00:40:18.918Z,100097.94
2023-05-10T00:42:49.778Z,100094.97
2023-05-10T00:45:16.635Z,100084.34
2023-05-10T00:47:43.689Z,100105.84
2023-05-10T00:50:11.009Z,100090.75
2023-05-10T00:52:38.186Z,100110.59
2023-05-10T00:55:06.855Z,100087.63
2023-05-10T00:57:33.871Z,100095.31
2023-05-10T01:00:00.877Z,100093.78
2023-05-10T01:02:28.067Z,100078.25
2023-05-10T01:04:55.546Z,100075.72
2023-05-10T01:07:22.514Z,100092.28
2023-05-10T01:09:49.424Z,100058.69
2023-05-10T01:12:16.535Z,100070.66
2023-05-10T01:14:44.186Z,100086.94
2023-05-10T01:17:13.354Z,100093.84
2023-05-10T01:19:40.610Z,100071.75
2023-05-10T01:22:48.491Z,100097.16
2023-05-10T01:25:38.612Z,100033.34
2023-05-10T01:28:17.722Z,100081.53
2023-05-10T01:31:07.512Z,100079.16
2023-05-10T01:33:42.780Z,100077.66
2023-05-10T01:36:18.752Z,100067.53
2023-05-10T01:38:53.993Z,100093.28
2023-05-10T01:41:44.990Z,100076.16
2023-05-10T01:44:21.613Z,100072.16
2023-05-10T01:46:59.337Z,100073.63
2023-05-10T01:49:35.704Z,100058.34
2023-05-10T01:52:10.572Z,100059.00
2023-05-10T01:54:42.736Z,100048.03
2023-05-10T01:57:11.899Z,100068.47
2023-05-10T01:59:41.101Z,100054.38
2023-05-10T02:02:09.771Z,100086.38
2023-05-10T02:04:39.576Z,100063.81
2023-05-10T02:07:09.568Z,100056.81
2023-05-10T02:09:38.059Z,100079.34
2023-05-10T02:12:07.450Z,100062.94
2023-05-10T02:14:38.105Z,100044.25
2023-05-10T02:17:08.714Z,100056.41
2023-05-10T02:19:39.215Z,100067.78
2023-05-10T02:22:06.952Z,100063.56
2023-05-10T02:24:36.000Z,100063.97
2023-05-10T02:27:05.002Z,100066.88
2023-05-10T02:29:33.615Z,100041.22
2023-05-10T02:32:01.409Z,100060.16
2023-05-10T02:34:29.244Z,100036.78
2023-05-10T02:36:57.180Z,100041.69
2023-05-10T02:39:25.860Z,100044.59
2023-05-10T02:41:54.455Z,100035.97
2023-05-10T02:44:23.567Z,100039.41
2023-05-10T02:46:50.980Z,100030.28
2023-05-10T02:49:18.150Z,100048.63
2023-05-10T02:51:59.351Z,100071.84
2023-05-10T02:54:31.386Z,100041.97
2023-05-10T02:57:01.511Z,100026.44
2023-05-10T02:59:28.677Z,100050.81
2023-05-10T03:01:55.690Z,100055.31
2023-05-10T03:04:23.094Z,100033.81
2023-05-10T03:06:52.064Z,100036.44
2023-05-10T03:09:20.007Z,100000.66
2023-05-10T03:12:08.245Z,100040.09
2023-05-10T03:14:50.715Z,100035.38
2023-05-10T03:17:30.322Z,100041.34
2023-05-10T03:20:03.997Z,100037.34
2023-05-10T03:22:56.519Z,100016.91
2023-05-10T03:25:25.586Z,100024.06
2023-05-10T03:27:53.804Z,100024.63
2023-05-10T03:30:21.337Z,100010.09
2023-05-10T03:32:48.388Z,100037.88
2023-05-10T03:35:17.720Z,100000.94
2023-05-10T03:37:45.103Z,100040.88
2023-05-10T03:40:12.580Z,100028.69
2023-05-10T03:42:41.966Z,100032.13
2023-05-10T03:45:09.750Z,100031.53
2023-05-10T03:47:36.940Z,100027.59
2023-05-10T03:50:04.511Z,100024.75
2023-05-10T03:52:31.528Z,100009.13
2023-05-10T03:54:58.493Z,100014.41
2023-05-10T03:57:25.471Z,100019.41
2023-05-10T03:59:52.553Z,100022.88
2023-05-10T04:02:19.549Z,100018.41
2023-05-10T04:04:46.547Z,100028.19
2023-05-10T04:07:13.548Z,100025.84
2023-05-10T04:09:40.681Z,100014.59
2023-05-10T04:12:10.137Z,100025.91
2023-05-10T04:14:37.960Z,100025.66
2023-05-10T04:17:05.013Z,100030.75
2023-05-10T04:19:32.832Z,100032.28
2023-05-10T04:22:00.039Z,100014.19
2023-05-10T04:24:26.962Z,100021.34
2023-05-10T04:26:57.642Z,100036.47
2023-05-10T04:29:24.963Z,100031.97
2023-05-10T04:31:51.894Z,100045.91
2023-05-10T04:34:18.852Z,100030.44
2023-05-10T04:36:45.699Z,100027.81
2023-05-10T04:39:12.720Z,100033.47
2023-05-10T04:41:41.067Z,100025.16
2023-05-10T04:44:08.074Z,100040.25
2023-05-10T04:46:35.006Z,100007.75
2023-05-10T04:49:01.961Z,99986.31
2023-05-10T04:51:28.818Z,100028.84
2023-05-10T04:54:05.066Z,100016.84
2023-05-10T04:56:33.265Z,100041.41
2023-05-10T04:59:00.438Z,100025.19
2023-05-10T05:01:27.414Z,100024.03
2023-05-10T05:03:54.359Z,100024.44
2023-05-10T05:06:21.614Z,100043.63
2023-05-10T05:08:48.466Z,100014.59
2023-05-10T05:11:15.388Z,100014.94
2023-05-10T05:13:42.279Z,100014.88
2023-05-10T05:16:09.335Z,100011.16
2023-05-10T05:18:36.160Z,100024.72
2023-05-10T05:21:03.250Z,100024.34
2023-05-10T05:23:30.141Z,100017.03
2023-05-10T05:25:57.205Z,100009.66
2023-05-10T05:28:24.087Z,99995.38
2023-05-10T05:30:51.037Z,100015.69
2023-05-10T05:33:17.982Z,100013.41
2023-05-10T05:35:44.980Z,100017.03
2023-05-10T05:38:11.831Z,100042.56
2023-05-10T05:40:38.736Z,99995.94
2023-05-10T05:43:05.628Z,100009.59
2023-05-10T05:45:32.764Z,100002.47
2023-05-10T05:47:59.935Z,100012.06
2023-05-10T05:50:26.937Z,100003.38
2023-05-10T05:52:53.803Z,100004.34
2023-05-10T05:55:20.734Z,99999.34
2023-05-10T05:57:47.628Z,99977.88
2023-05-10T06:00:15.050Z,100003.69
2023-05-10T06:02:41.857Z,100018.78
2023-05-10T06:05:09.434Z,99985.06
2023-05-10T06:07:36.346Z,100000.66
2023-05-10T06:10:03.572Z,100007.44
2023-05-10T06:12:30.467Z,100019.84
2023-05-10T06:14:57.528Z,100008.16
2023-05-10T06:17:24.401Z,99997.41
2023-05-10T06:19:51.478Z,99979.44
2023-05-10T06:22:18.367Z,100002.28
2023-05-10T06:24:45.359Z,99981.81
2023-05-10T06:27:12.193Z,99992.44
2023-05-10T06:29:39.137Z,100012.63
2023-05-10T06:32:06.031Z,100002.16
2023-05-10T06:34:32.940Z,99991.69
2023-05-10T06:36:59.822Z,99983.81
2023-05-10T06:39:26.748Z,99967.56
2023-05-10T06:41:53.628Z,99978.03
2023-05-10T06:44:20.530Z,99994.41
2023-05-10T06:46:47.499Z,99988.09
2023-05-10T06:49:14.465Z,99980.28
2023-05-10T06:51:41.408Z,99974.34
2023-05-10T06:54:08.350Z,99966.19
2023-05-10T06:56:35.209Z,99963.41
2023-05-10T06:59:02.145Z,99939.00
2023-05-10T07:01:29.074Z,99958.06
2023-05-10T07:03:56.161Z,99976.66
2023-05-10T07:06:32.931Z,99961.66
2023-05-10T07:09:01.477Z,99968.44
2023-05-10T07:11:28.411Z,99958.47
2023-05-10T07:13:55.327Z,99930.44
2023-05-10T07:16:22.247Z,99937.91
2023-05-10T07:18:49.244Z,99943.16
2023-05-10T07:21:16.203Z,99938.91
2023-05-10T07:23:45.141Z,99924.28
2023-05-10T07:26:12.176Z,99937.94
2023-05-10T07:28:39.146Z,99929.66
2023-05-10T07:31:06.164Z,99938.63
2023-05-10T07:33:33.089Z,99929.75
2023-05-10T07:35:59.924Z,99913.66
2023-05-10T07:38:26.949Z,99925.50
2023-05-10T07:40:53.797Z,99945.25
2023-05-10T07:43:20.712Z,99928.97
2023-05-10T07:45:47.561Z,99937.06
2023-05-10T07:48:14.525Z,99937.19
2023-05-10T07:50:41.425Z,99908.59
2023-05-10T07:53:08.413Z,99930.75
2023-05-10T07:55:35.832Z,99932.97
2023-05-10T07:58:02.844Z,99924.56
2023-05-10T08:00:29.778Z,99933.25
2023-05-10T08:02:56.961Z,99930.44
2023-05-10T08:05:23.850Z,99892.50
2023-05-10T08:07:51.097Z,99930.72
2023-05-10T08:10:18.026Z,99908.81
2023-05-10T08:12:45.127Z,99939.63
2023-05-10T08:15:12.049Z,99919.16
2023-05-10T08:17:39.046Z,99920.41
2023-05-10T08:20:06.455Z,99924.00
2023-05-10T08:22:33.427Z,99904.78
2023-05-10T08:25:00.257Z,99918.06
2023-05-10T08:27:27.365Z,99881.59
2023-05-10T08:29:54.208Z,99907.44
2023-05-10T08:32:21.150Z,99878.69
2023-05-10T08:34:48.012Z,99893.88
2023-05-10T08:37:15.129Z,99896.47
2023-05-10T08:39:42.040Z,99902.06
2023-05-10T08:42:10.435Z,99898.19
2023-05-10T08:44:38.169Z,99863.81
2023-05-10T08:47:09.538Z,99873.81
2023-05-10T08:49:38.711Z,99883.25
2023-05-10T08:52:08.216Z,99869.97
2023-05-10T08:54:35.323Z,99872.19
2023-05-10T08:57:02.764Z,99867.53
2023-05-10T08:59:30.070Z,99884.38
2023-05-10T09:01:58.877Z,99864.84
2023-05-10T09:04:26.134Z,99859.84
2023-05-10T09:06:53.435Z,99855.47
2023-05-10T09:09:21.463Z,99845.00
2023-05-10T09:11:49.018Z,99863.75
2023-05-10T09:14:16.429Z,99864.28
2023-05-10T09:16:43.749Z,99856.09
2023-05-10T09:19:11.375Z,99860.00
2023-05-10T09:21:38.438Z,99848.44
2023-05-10T09:24:06.617Z,99834.03
2023-05-10T09:26:33.954Z,99850.91
2023-05-10T09:29:02.307Z,99860.47
2023-05-10T09:31:52.284Z,99845.44
2023-05-10T09:34:21.012Z,99835.50
2023-05-10T09:36:58.033Z,99842.41
2023-05-10T09:39:35.484Z,99844.25
2023-05-10T09:42:10.029Z,99830.19
2023-05-10T09:44:37.631Z,99819.34
2023-05-10T09:47:05.122Z,99819.81
2023-05-10T09:49:32.132Z,99826.94
2023-05-10T09:52:07.205Z,99830.13
2023-05-10T09:54:35.101Z,99801.47
2023-05-10T09:57:02.695Z,99844.00
2023-05-10T09:59:30.369Z,99837.34
2023-05-10T10:02:00.979Z,99821.38
2023-05-10T10:04:29.951Z,99825.22
2023-05-10T10:07:02.429Z,99812.81
2023-05-10T10:09:30.073Z,99810.47
2023-05-10T10:11:57.292Z,99792.16
2023-05-10T10:14:25.192Z,99796.84
2023-05-10T10:17:05.522Z,99785.44
2023-05-10T10:19:35.276Z,99802.19
2023-05-10T10:22:02.133Z,99782.34
2023-05-10T10:24:29.084Z,99803.47
2023-05-10T10:27:04.637Z,99809.78
2023-05-10T10:30:10.083Z,99807.63
2023-05-10T10:33:20.175Z,99804.44
2023-05-10T10:35:47.877Z,99803.59
2023-05-10T10:38:15.041Z,99797.34
2023-05-10T10:40:41.991Z,99815.31
2023-05-10T10:43:29.158Z,99789.47
2023-05-10T10:46:11.070Z,99789.06
2023-05-10T10:48:38.189Z,99803.44
2023-05-10T10:51:05.108Z,99795.47
2023-05-10T10:53:32.900Z,99791.53
2023-05-10T10:56:11.504Z,99775.19
2023-05-10T10:58:40.209Z,99777.94
2023-05-10T11:01:15.910Z,99795.28
2023-05-10T11:04:16.268Z,99786.22
2023-05-10T11:06:43.252Z,99756.00
2023-05-10T11:09:11.947Z,99765.72
2023-05-10T11:11:55.415Z,99775.03
2023-05-10T11:14:23.342Z,99758.16
2023-05-10T11:16:50.574Z,99761.53
2023-05-10T11:19:19.110Z,99769.53
2023-05-10T11:22:11.850Z,99769.25
2023-05-10T11:24:38.846Z,99759.75
2023-05-10T11:27:07.024Z,99755.16
2023-05-10T11:29:34.008Z,99751.94
2023-05-10T11:32:01.154Z,99766.53
2023-05-10T11:34:33.040Z,99754.22
2023-05-10T11:37:00.962Z,99771.16
2023-05-10T11:39:32.282Z,99748.75
2023-05-10T11:41:59.925Z,99752.69
2023-05-10T11:44:33.731Z,99743.09
2023-05-10T11:47:02.146Z,99765.03
2023-05-10T11:49:29.292Z,99745.75
2023-05-10T11:52:08.737Z,99750.66
2023-05-10T11:54:35.990Z,99748.53
2023-05-10T11:57:03.201Z,99724.66
2023-05-10T11:59:30.369Z,99723.47
2023-05-10T12:01:57.526Z,99724.28
2023-05-10T12:04:24.895Z,99724.53
2023-05-10T12:06:52.134Z,99728.06
2023-05-10T12:09:23.044Z,99729.03
2023-05-10T12:11:58.921Z,99706.72
2023-05-10T12:14:26.011Z,99729.22
2023-05-10T12:16:52.993Z,99723.94
2023-05-10T12:19:20.937Z,99713.28
2023-05-10T12:21:48.422Z,99725.69
2023-05-10T12:24:15.374Z,99724.56
2023-05-10T12:29:26.724Z,99719.41
2023-05-10T12:31:58.398Z,99726.66
2023-05-10T12:34:32.634Z,99714.63
2023-05-10T12:37:00.290Z,99710.97
2023-05-10T12:39:27.533Z,99703.97
2023-05-10T12:41:54.466Z,99709.28
2023-05-10T12:44:21.386Z,99717.34
2023-05-10T12:46:48.311Z,99707.28
2023-05-10T12:49:15.122Z,99710.56
2023-05-10T12:51:42.025Z,99689.31
2023-05-10T12:54:08.861Z,99699.59
2023-05-10T12:56:35.801Z,99712.09
2023-05-10T12:59:02.646Z,99695.56
2023-05-10T13:01:29.668Z,99697.63
2023-05-10T13:03:56.589Z,99713.03
2023-05-10T13:06:23.572Z,99699.19
2023-05-10T13:08:50.474Z,99714.63
2023-05-10T13:11:17.412Z,99703.53
2023-05-10T13:13:44.332Z,99687.91
2023-05-10T13:16:11.312Z,99691.91
2023-05-10T13:18:38.194Z,99704.59
2023-05-10T13:21:05.171Z,99700.25
2023-05-10T13:23:32.202Z,99699.94
2023-05-10T13:25:59.160Z,99717.50
2023-05-10T13:28:26.004Z,99674.41
2023-05-10T13:30:52.914Z,99720.53
2023-05-10T13:33:19.772Z,99703.63
2023-05-10T13:35:46.771Z,99675.81
2023-05-10T13:38:14.147Z,99673.25
2023-05-10T13:40:41.127Z,99689.06
2023-05-10T13:43:07.999Z,99694.38
2023-05-10T13:45:37.478Z,99693.41
2023-05-10T13:48:04.708Z,99695.88
2023-05-10T13:50:31.674Z,99681.56
2023-05-10T13:52:58.553Z,99679.06
2023-05-10T13:55:25.465Z,99669.84
2023-05-10T13:57:52.502Z,99684.78
2023-05-10T14:00:19.668Z,99685.13
2023-05-10T14:02:46.573Z,99681.41
2023-05-10T14:05:14.036Z,99675.81
2023-05-10T14:07:41.031Z,99654.34
2023-05-10T14:10:08.269Z,99669.84
2023-05-10T14:12:35.251Z,99658.53
2023-05-10T14:15:02.225Z,99647.41
2023-05-10T14:17:29.109Z,99656.78
2023-05-10T14:19:56.070Z,99646.22
2023-05-10T14:22:22.909Z,99657.47
2023-05-10T14:24:52.319Z,99659.34
2023-05-10T14:27:19.684Z,99626.66
2023-05-10T14:29:46.812Z,99647.03
2023-05-10T14:32:13.702Z,99643.53
2023-05-10T14:34:40.688Z,99670.19
2023-05-10T14:37:07.899Z,99638.81
2023-05-10T14:39:34.744Z,99672.72
2023-05-10T14:42:01.600Z,99634.19
2023-05-10T14:44:31.101Z,99653.25
2023-05-10T14:46:58.020Z,99658.56
2023-05-10T14:49:25.041Z,99643.63
2023-05-10T14:51:51.968Z,99665.53
2023-05-10T14:54:18.921Z,99664.91
2023-05-10T14:56:45.882Z,99653.28
2023-05-10T14:59:12.856Z,99644.28
2023-05-10T15:01:40.300Z,99660.81
2023-05-10T15:04:07.954Z,99655.72
2023-05-10T15:06:35.910Z,99660.53
2023-05-10T15:09:03.933Z,99670.78
2023-05-10T15:11:30.888Z,99659.16
2023-05-10T15:13:57.805Z,99646.34
2023-05-10T15:16:25.155Z,99669.13
2023-05-10T15:18:52.341Z,99670.19
2023-05-10T15:21:19.287Z,99649.31
2023-05-10T15:23:46.276Z,99653.84
2023-05-10T15:26:13.123Z,99648.88
2023-05-10T15:28:40.061Z,99631.88
2023-05-10T15:31:07.090Z,99654.56
2023-05-10T15:33:34.141Z,99641.38
2023-05-10T15:36:01.115Z,99656.69
2023-05-10T15:38:28.028Z,99637.47
2023-05-10T15:40:58.074Z,99650.66
2023-05-10T15:43:25.180Z,99610.03
2023-05-10T15:45:52.067Z,99661.13
2023-05-10T15:48:19.173Z,99638.91
2023-05-10T15:50:46.059Z,99671.69
2023-05-10T15:53:13.044Z,99611.19
2023-05-10T15:55:39.979Z,99650.28
2023-05-10T15:58:06.985Z,99646.81
2023-05-10T16:00:34.049Z,99673.41
2023-05-10T16:03:01.159Z,99685.31
2023-05-10T16:05:29.211Z,99677.13
2023-05-10T16:07:56.132Z,99671.59
2023-05-10T16:10:23.070Z,99669.19
2023-05-10T16:12:50.072Z,99671.91
2023-05-10T16:15:17.507Z,99671.13
2023-05-10T16:17:44.828Z,99667.81
2023-05-10T16:20:12.316Z,99670.28
2023-05-10T16:22:39.518Z,99661.03
2023-05-10T16:25:06.848Z,99667.94
2023-05-10T16:27:33.871Z,99673.88
2023-05-10T16:30:00.733Z,99688.25
2023-05-10T16:32:27.824Z,99645.25
2023-05-10T16:34:54.704Z,99675.66
2023-05-10T16:37:21.706Z,99706.16
2023-05-10T16:39:48.685Z,99689.91
2023-05-10T16:42:15.632Z,99689.34
2023-05-10T16:44:42.484Z,99687.28
2023-05-10T16:47:09.586Z,99681.19
2023-05-10T16:49:36.759Z,99672.16
2023-05-10T16:52:04.052Z,99661.19
2023-05-10T16:54:31.036Z,99667.09
2023-05-10T16:56:57.968Z,99686.22
2023-05-10T16:59:24.880Z,99672.47
2023-05-10T17:01:51.995Z,99693.25
2023-05-10T17:04:19.232Z,99689.09
2023-05-10T17:06:46.163Z,99690.44
2023-05-10T17:09:13.028Z,99673.16
2023-05-10T17:11:39.945Z,99672.59
2023-05-10T17:14:06.855Z,99686.75
2023-05-10T17:16:33.915Z,99678.31
2023-05-10T17:19:00.917Z,99691.06
2023-05-10T17:21:27.922Z,99686.13
2023-05-10T17:23:54.926Z,99666.56
2023-05-10T17:26:21.795Z,99693.63
2023-05-10T17:28:48.653Z,99691.75
2023-05-10T17:31:15.828Z,99699.03
2023-05-10T17:33:42.740Z,99691.53
2023-05-10T17:36:09.701Z,99694.47
2023-05-10T17:38:36.906Z,99660.78
2023-05-10T17:41:04.198Z,99682.22
2023-05-10T17:43:31.098Z,99719.44
2023-05-10T17:45:58.209Z,99677.50
2023-05-10T17:48:25.253Z,99683.91
2023-05-10T17:50:52.326Z,99681.66
2023-05-10T17:53:19.474Z,99699.28
2023-05-10T17:55:46.676Z,99701.03
2023-05-10T17:58:13.493Z,99683.22
2023-05-10T18:00:40.592Z,99705.72
2023-05-10T18:03:07.543Z,99694.34
2023-05-10T18:05:38.811Z,99705.91
2023-05-10T18:08:06.492Z,99681.09
2023-05-10T18:10:33.429Z,99712.13
2023-05-10T18:13:00.635Z,99704.63
2023-05-10T18:15:27.600Z,99677.41
2023-05-10T18:17:54.599Z,99675.31
2023-05-10T18:20:21.513Z,99690.91
2023-05-10T18:22:48.493Z,99684.19
2023-05-10T18:25:15.571Z,99667.53
2023-05-10T18:27:42.856Z,99669.72
2023-05-10T18:30:10.057Z,99672.31
2023-05-10T18:32:36.997Z,99700.66
2023-05-10T18:35:04.029Z,99717.22
2023-05-10T18:37:31.037Z,99702.72
2023-05-10T18:39:57.972Z,99680.44
2023-05-10T18:42:25.367Z,99675.63
2023-05-10T18:44:52.492Z,99688.19
2023-05-10T18:47:19.460Z,99691.31
2023-05-10T18:49:46.429Z,99695.94
2023-05-10T18:52:13.441Z,99697.41
2023-05-10T18:54:40.317Z,99702.75
2023-05-10T18:57:07.237Z,99696.22
2023-05-10T18:59:34.278Z,99694.63
2023-05-10T19:02:01.295Z,99687.81
2023-05-10T19:04:28.270Z,99703.06
2023-05-10T19:06:55.245Z,99702.03
2023-05-10T19:09:22.378Z,99687.00
2023-05-10T19:11:51.784Z,99690.06
2023-05-10T19:14:18.853Z,99716.22
2023-05-10T19:16:45.744Z,99698.44
2023-05-10T19:19:14.488Z,99699.72
2023-05-10T19:21:41.461Z,99699.03
2023-05-10T19:24:08.381Z,99705.44
2023-05-10T19:26:37.235Z,99696.38
2023-05-10T19:29:05.250Z,99698.31
2023-05-10T19:31:33.022Z,99709.78
2023-05-10T19:34:01.003Z,99701.00
2023-05-10T19:36:28.146Z,99711.69
2023-05-10T19:38:55.140Z,99710.59
2023-05-10T19:41:22.700Z,99704.47
2023-05-10T19:43:49.569Z,99694.72
2023-05-10T19:46:17.963Z,99670.34
2023-05-10T19:48:47.001Z,99685.06
2023-05-10T19:51:14.154Z,99686.56
2023-05-10T19:53:41.067Z,99677.47
2023-05-10T19:56:08.201Z,99684.44
2023-05-10T19:58:35.254Z,99683.72
2023-05-10T20:01:02.604Z,99692.28
2023-05-10T20:03:30.145Z,99669.84
2023-05-10T20:05:57.075Z,99681.06
2023-05-10T20:08:24.917Z,99685.47
2023-05-10T20:10:51.887Z,99681.69
2023-05-10T20:13:18.746Z,99680.91
2023-05-10T20:15:46.625Z,99677.97
2023-05-10T20:18:14.505Z,99675.03
2023-05-10T20:20:53.744Z,99679.84
2023-05-10T20:23:23.635Z,99671.97
2023-05-10T20:26:20.979Z,99672.63
2023-05-10T20:28:51.973Z,99662.44
2023-05-10T20:31:19.807Z,99656.59
2023-05-10T20:33:47.065Z,99669.09
2023-05-10T20:36:14.218Z,99664.19
2023-05-10T20:38:41.791Z,99660.16
2023-05-10T20:41:08.644Z,99653.94
2023-05-10T20:43:35.662Z,99662.72
2023-05-10T20:46:02.846Z,99664.91
2023-05-10T20:48:29.967Z,99666.19
2023-05-10T20:50:57.778Z,99655.22
2023-05-10T20:53:25.255Z,99665.09
2023-05-10T20:55:52.143Z,99657.84
2023-05-10T20:58:19.497Z,99663.75
2023-05-10T21:00:46.837Z,99651.50
2023-05-10T21:03:16.821Z,99657.88
2023-05-10T21:05:43.780Z,99643.72
2023-05-10T21:08:10.994Z,99676.09
2023-05-10T21:10:37.863Z,99667.94
2023-05-10T21:13:07.655Z,99676.56
2023-05-10T21:15:34.572Z,99652.59
2023-05-10T21:18:01.645Z,99647.38
2023-05-10T21:20:30.090Z,99648.25
2023-05-10T21:22:57.061Z,99639.72
2023-05-10T21:25:23.927Z,99630.03
2023-05-10T21:27:50.956Z,99642.09
2023-05-10T21:30:19.193Z,99644.03
2023-05-10T21:32:48.724Z,99657.63
2023-05-10T21:35:15.689Z,99649.69
2023-05-10T21:37:42.782Z,99658.38
2023-05-10T21:40:28.883Z,99654.16
2023-05-10T21:42:57.996Z,99665.53
2023-05-10T21:45:24.818Z,99648.34
2023-05-10T21:47:51.786Z,99630.19
2023-05-10T21:50:18.958Z,99643.75
2023-05-10T21:52:46.070Z,99655.13
2023-05-10T21:55:12.974Z,99641.56
2023-05-10T21:57:39.962Z,99612.16
2023-05-10T22:00:07.609Z,99624.22
2023-05-10T22:02:34.628Z,99638.94
2023-05-10T22:05:02.573Z,99621.50
2023-05-10T22:07:33.135Z,99623.41
2023-05-10T22:10:00.215Z,99635.78
2023-05-10T22:12:27.366Z,99639.19
2023-05-10T22:15:09.135Z,99643.13
2023-05-10T22:17:38.644Z,99651.81
2023-05-10T22:20:07.961Z,99586.63
2023-05-10T22:22:34.944Z,99627.91
2023-05-10T22:25:01.860Z,99644.19
2023-05-10T22:27:28.896Z,99624.88
2023-05-10T22:29:56.640Z,99625.22
2023-05-10T22:32:23.540Z,99637.31
2023-05-10T22:34:50.436Z,99614.31
2023-05-10T22:37:17.372Z,99647.13
2023-05-10T22:39:46.152Z,99616.66
2023-05-10T22:42:13.089Z,99632.16
2023-05-10T22:44:39.898Z,99630.25
2023-05-10T22:47:06.975Z,99641.13
2023-05-10T22:49:34.350Z,99622.72
2023-05-10T22:52:01.331Z,99624.63
2023-05-10T22:54:28.193Z,99634.47
2023-05-10T22:56:56.331Z,99601.09
2023-05-10T22:59:23.544Z,99624.22
2023-05-10T23:01:52.741Z,99647.31
2023-05-10T23:04:19.639Z,99599.59
2023-05-10T23:06:46.825Z,99638.28
2023-05-10T23:09:13.662Z,99634.47
2023-05-10T23:11:40.634Z,99647.03
2023-05-10T23:14:07.792Z,99625.09
2023-05-10T23:16:34.913Z,99640.63
2023-05-10T23:19:01.946Z,99637.69
2023-05-10T23:21:31.284Z,99639.94
2023-05-10T23:23:59.174Z,99634.72
2023-05-10T23:26:26.069Z,99625.22
2023-05-10T23:28:52.931Z,99629.53
2023-05-10T23:31:19.851Z,99626.88
2023-05-10T23:33:46.714Z,99614.19
2023-05-10T23:36:13.731Z,99602.50
2023-05-10T23:38:40.599Z,99648.84
2023-05-10T23:41:07.433Z,99636.06
2023-05-10T23:43:34.280Z,99635.31
2023-05-10T23:46:01.671Z,99633.19
2023-05-10T23:48:28.933Z,99635.81
2023-05-10T23:50:55.825Z,99615.09
2023-05-10T23:53:25.099Z,99639.31
2023-05-10T23:55:51.877Z,99625.72
2023-05-10T23:58:18.656Z,99653.25
